sensor_id;sensor_type;location;lat;lon;timestamp;P1;durP1;ratioP1;P2;durP2;ratioP2
19402;SDS011;9837;48.888;8.998;2022-11-14T04:01:25;20.70;;;13.17;;
19402;SDS011;9837;48.888;8.998;2022-11-14T04:03:53;18.03;;;12.10;;
19402;SDS011;9837;48.888;8.998;2022-11-14T04:06:19;20.17;;;12.47;;
19402;SDS011;9837;48.888;8.998;2022-11-14T04:08:45;18.57;;;12.63;;
19402;SDS011;9837;48.888;8.998;2022-11-14T04:11:11;20.37;;;12.93;;
19402;SDS011;9837;48.888;8.998;2022-11-14T04:13:36;18.27;;;11.87;;
19402;SDS011;9837;48.888;8.998;2022-11-14T04:16:02;17.10;;;12.23;;
19402;SDS011;9837;48.888;8.998;2022-11-14T04:18:28;18.70;;;12.87;;
19402;SDS011;9837;48.888;8.998;2022-11-14T04:20:54;17.20;;;12.33;;
19402;SDS011;9837;48.888;8.998;2022-11-14T04:23:19;18.03;;;12.47;;
19402;SDS011;9837;48.888;8.998;2022-11-14T04:25:45;20.07;;;13.47;;
19402;SDS011;9837;48.888;8.998;2022-11-14T04:28:11;19.37;;;12.80;;
19402;SDS011;9837;48.888;8.998;2022-11-14T05:50:09;10.60;;;8.10;;
19402;SDS011;9837;48.888;8.998;2022-11-14T05:52:35;13.10;;;8.53;;
19402;SDS011;9837;48.888;8.998;2022-11-14T05:55:01;11.27;;;7.83;;
19402;SDS011;9837;48.888;8.998;2022-11-14T06:44:06;9.43;;;6.73;;
19402;SDS011;9837;48.888;8.998;2022-11-14T07:29:45;9.53;;;7.23;;
19402;SDS011;9837;48.888;8.998;2022-11-14T08:01:47;13.43;;;7.17;;
19402;SDS011;9837;48.888;8.998;2022-11-14T08:04:13;11.13;;;7.13;;
19402;SDS011;9837;48.888;8.998;2022-11-14T08:07:01;8.60;;;6.13;;
19402;SDS011;9837;48.888;8.998;2022-11-14T08:09:27;9.57;;;6.60;;
19402;SDS011;9837;48.888;8.998;2022-11-14T08:11:53;10.03;;;6.20;;
19402;SDS011;9837;48.888;8.998;2022-11-14T08:14:20;11.63;;;6.53;;
19402;SDS011;9837;48.888;8.998;2022-11-14T08:16:46;10.17;;;6.30;;
19402;SDS011;9837;48.888;8.998;2022-11-14T08:19:12;9.43;;;6.37;;
19402;SDS011;9837;48.888;8.998;2022-11-14T08:21:40;10.10;;;6.40;;
19402;SDS011;9837;48.888;8.998;2022-11-14T08:24:07;8.77;;;6.00;;
19402;SDS011;9837;48.888;8.998;2022-11-14T08:26:34;10.93;;;6.77;;
19402;SDS011;9837;48.888;8.998;2022-11-14T08:29:03;8.73;;;6.33;;
19402;SDS011;9837;48.888;8.998;2022-11-14T08:31:29;8.23;;;6.33;;
19402;SDS011;9837;48.888;8.998;2022-11-14T08:33:55;9.80;;;6.33;;
19402;SDS011;9837;48.888;8.998;2022-11-14T08:36:21;8.97;;;6.43;;
19402;SDS011;9837;48.888;8.998;2022-11-14T08:38:47;8.30;;;5.70;;
19402;SDS011;9837;48.888;8.998;2022-11-14T08:41:16;7.27;;;5.43;;
19402;SDS011;9837;48.888;8.998;2022-11-14T08:43:55;7.43;;;5.53;;
19402;SDS011;9837;48.888;8.998;2022-11-14T08:46:24;9.00;;;5.00;;
19402;SDS011;9837;48.888;8.998;2022-11-14T08:48:58;6.10;;;4.30;;
19402;SDS011;9837;48.888;8.998;2022-11-14T08:51:58;6.27;;;4.60;;
19402;SDS011;9837;48.888;8.998;2022-11-14T08:54:27;7.73;;;4.93;;
19402;SDS011;9837;48.888;8.998;2022-11-14T09:00:19;7.07;;;4.10;;
19402;SDS011;9837;48.888;8.998;2022-11-14T09:02:45;13.70;;;4.17;;
19402;SDS011;9837;48.888;8.998;2022-11-14T09:05:11;6.07;;;3.40;;
19402;SDS011;9837;48.888;8.998;2022-11-14T09:07:37;3.97;;;3.33;;
19402;SDS011;9837;48.888;8.998;2022-11-14T09:10:03;4.50;;;3.20;;
19402;SDS011;9837;48.888;8.998;2022-11-14T09:12:29;3.93;;;2.87;;
19402;SDS011;9837;48.888;8.998;2022-11-14T09:14:56;3.93;;;3.30;;
19402;SDS011;9837;48.888;8.998;2022-11-14T09:17:22;3.93;;;2.47;;
19402;SDS011;9837;48.888;8.998;2022-11-14T09:19:48;5.50;;;2.20;;
19402;SDS011;9837;48.888;8.998;2022-11-14T09:22:14;3.43;;;2.43;;
19402;SDS011;9837;48.888;8.998;2022-11-14T09:24:40;3.30;;;2.20;;
19402;SDS011;9837;48.888;8.998;2022-11-14T09:27:06;5.00;;;2.37;;
19402;SDS011;9837;48.888;8.998;2022-11-14T09:29:32;2.47;;;1.80;;
19402;SDS011;9837;48.888;8.998;2022-11-14T09:31:58;4.23;;;2.20;;
19402;SDS011;9837;48.888;8.998;2022-11-14T09:34:24;3.13;;;2.17;;
19402;SDS011;9837;48.888;8.998;2022-11-14T09:36:50;2.40;;;1.90;;
19402;SDS011;9837;48.888;8.998;2022-11-14T09:39:16;4.03;;;1.90;;
19402;SDS011;9837;48.888;8.998;2022-11-14T09:47:15;2.30;;;1.80;;
19402;SDS011;9837;48.888;8.998;2022-11-14T09:49:45;4.90;;;2.43;;
19402;SDS011;9837;48.888;8.998;2022-11-14T09:57:41;5.03;;;1.77;;
19402;SDS011;9837;48.888;8.998;2022-11-14T10:00:12;4.50;;;1.93;;
19402;SDS011;9837;48.888;8.998;2022-11-14T10:02:39;8.23;;;1.70;;
19402;SDS011;9837;48.888;8.998;2022-11-14T10:13:55;3.63;;;2.00;;
19402;SDS011;9837;48.888;8.998;2022-11-14T10:19:14;4.23;;;2.00;;
19402;SDS011;9837;48.888;8.998;2022-11-14T10:24:59;2.83;;;1.90;;
19402;SDS011;9837;48.888;8.998;2022-11-14T10:27:33;2.73;;;2.00;;
19402;SDS011;9837;48.888;8.998;2022-11-14T10:35:20;2.27;;;1.87;;
19402;SDS011;9837;48.888;8.998;2022-11-14T10:40:23;1.83;;;1.53;;
19402;SDS011;9837;48.888;8.998;2022-11-14T10:42:54;5.30;;;2.00;;
19402;SDS011;9837;48.888;8.998;2022-11-14T10:45:34;2.97;;;1.43;;
19402;SDS011;9837;48.888;8.998;2022-11-14T10:50:52;1.97;;;1.43;;
19402;SDS011;9837;48.888;8.998;2022-11-14T10:53:32;1.50;;;1.40;;
19402;SDS011;9837;48.888;8.998;2022-11-14T10:56:10;1.77;;;1.60;;
19402;SDS011;9837;48.888;8.998;2022-11-14T10:58:37;8.97;;;1.70;;
19402;SDS011;9837;48.888;8.998;2022-11-14T11:04:10;1.70;;;1.60;;
19402;SDS011;9837;48.888;8.998;2022-11-14T11:06:36;1.60;;;1.50;;
19402;SDS011;9837;48.888;8.998;2022-11-14T11:09:10;2.17;;;1.80;;
19402;SDS011;9837;48.888;8.998;2022-11-14T11:12:03;4.50;;;2.03;;
19402;SDS011;9837;48.888;8.998;2022-11-14T11:14:30;2.20;;;1.63;;
19402;SDS011;9837;48.888;8.998;2022-11-14T11:19:45;1.70;;;1.60;;
19402;SDS011;9837;48.888;8.998;2022-11-14T11:24:54;2.30;;;1.70;;
19402;SDS011;9837;48.888;8.998;2022-11-14T11:27:24;1.50;;;1.40;;
19402;SDS011;9837;48.888;8.998;2022-11-14T11:30:04;4.17;;;1.60;;
19402;SDS011;9837;48.888;8.998;2022-11-14T11:32:30;2.00;;;1.67;;
19402;SDS011;9837;48.888;8.998;2022-11-14T11:34:56;1.60;;;1.50;;
19402;SDS011;9837;48.888;8.998;2022-11-14T11:37:24;1.43;;;1.27;;
19402;SDS011;9837;48.888;8.998;2022-11-14T11:40:04;2.07;;;1.70;;
19402;SDS011;9837;48.888;8.998;2022-11-14T11:45:09;1.93;;;1.40;;
19402;SDS011;9837;48.888;8.998;2022-11-14T11:47:41;1.20;;;1.10;;
19402;SDS011;9837;48.888;8.998;2022-11-14T11:50:13;1.53;;;1.40;;
19402;SDS011;9837;48.888;8.998;2022-11-14T11:52:44;2.70;;;1.40;;
19402;SDS011;9837;48.888;8.998;2022-11-14T11:57:43;3.20;;;1.87;;
19402;SDS011;9837;48.888;8.998;2022-11-14T12:00:21;4.07;;;2.00;;
19402;SDS011;9837;48.888;8.998;2022-11-14T12:02:48;8.97;;;3.47;;
19402;SDS011;9837;48.888;8.998;2022-11-14T12:07:57;5.00;;;2.63;;
19402;SDS011;9837;48.888;8.998;2022-11-14T12:10:31;6.23;;;3.57;;
19402;SDS011;9837;48.888;8.998;2022-11-14T12:15:59;2.97;;;1.90;;
19402;SDS011;9837;48.888;8.998;2022-11-14T12:32:53;4.60;;;1.80;;
19402;SDS011;9837;48.888;8.998;2022-11-14T12:35:47;1.60;;;1.50;;
19402;SDS011;9837;48.888;8.998;2022-11-14T12:38:17;2.37;;;1.30;;
19402;SDS011;9837;48.888;8.998;2022-11-14T12:40:48;3.93;;;2.00;;
19402;SDS011;9837;48.888;8.998;2022-11-14T12:43:25;2.20;;;1.60;;
19402;SDS011;9837;48.888;8.998;2022-11-14T12:50:49;2.10;;;1.70;;
19402;SDS011;9837;48.888;8.998;2022-11-14T13:09:58;2.10;;;1.40;;
19402;SDS011;9837;48.888;8.998;2022-11-14T13:13:00;2.40;;;1.50;;
19402;SDS011;9837;48.888;8.998;2022-11-14T13:15:53;2.73;;;1.90;;
19402;SDS011;9837;48.888;8.998;2022-11-14T13:18:52;1.67;;;1.57;;
19402;SDS011;9837;48.888;8.998;2022-11-14T13:21:37;3.63;;;1.93;;
19402;SDS011;9837;48.888;8.998;2022-11-14T13:24:23;2.43;;;1.67;;
19402;SDS011;9837;48.888;8.998;2022-11-14T13:26:53;1.80;;;1.70;;
19402;SDS011;9837;48.888;8.998;2022-11-14T13:32:03;2.10;;;1.40;;
19402;SDS011;9837;48.888;8.998;2022-11-14T13:34:52;7.47;;;1.80;;
19402;SDS011;9837;48.888;8.998;2022-11-14T13:37:41;1.70;;;1.60;;
19402;SDS011;9837;48.888;8.998;2022-11-14T13:40:18;7.70;;;2.20;;
19402;SDS011;9837;48.888;8.998;2022-11-14T13:43:17;2.27;;;1.60;;
19402;SDS011;9837;48.888;8.998;2022-11-14T13:45:52;2.17;;;1.80;;
19402;SDS011;9837;48.888;8.998;2022-11-14T13:50:56;1.93;;;1.73;;
19402;SDS011;9837;48.888;8.998;2022-11-14T13:53:26;3.63;;;2.20;;
19402;SDS011;9837;48.888;8.998;2022-11-14T14:04:12;1.80;;;1.70;;
19402;SDS011;9837;48.888;8.998;2022-11-14T14:09:33;5.60;;;3.80;;
19402;SDS011;9837;48.888;8.998;2022-11-14T14:28:28;7.57;;;2.77;;
19402;SDS011;9837;48.888;8.998;2022-11-14T14:31:17;2.93;;;2.30;;
19402;SDS011;9837;48.888;8.998;2022-11-14T14:33:50;4.77;;;2.20;;
19402;SDS011;9837;48.888;8.998;2022-11-14T14:38:49;2.53;;;1.90;;
19402;SDS011;9837;48.888;8.998;2022-11-14T14:41:17;2.10;;;1.70;;
19402;SDS011;9837;48.888;8.998;2022-11-14T14:43:48;2.00;;;1.80;;
19402;SDS011;9837;48.888;8.998;2022-11-14T14:46:24;5.30;;;2.10;;
19402;SDS011;9837;48.888;8.998;2022-11-14T14:48:52;2.17;;;1.97;;
19402;SDS011;9837;48.888;8.998;2022-11-14T14:51:27;3.67;;;2.10;;
19402;SDS011;9837;48.888;8.998;2022-11-14T14:53:55;2.87;;;2.00;;
19402;SDS011;9837;48.888;8.998;2022-11-14T14:56:22;3.10;;;2.40;;
19402;SDS011;9837;48.888;8.998;2022-11-14T14:58:49;6.73;;;2.20;;
19402;SDS011;9837;48.888;8.998;2022-11-14T15:01:18;5.00;;;2.10;;
19402;SDS011;9837;48.888;8.998;2022-11-14T15:04:00;4.60;;;2.20;;
19402;SDS011;9837;48.888;8.998;2022-11-14T15:06:31;3.23;;;2.57;;
19402;SDS011;9837;48.888;8.998;2022-11-14T15:09:12;3.17;;;2.07;;
19402;SDS011;9837;48.888;8.998;2022-11-14T15:11:45;4.77;;;2.50;;
19402;SDS011;9837;48.888;8.998;2022-11-14T15:14:24;3.30;;;2.00;;
19402;SDS011;9837;48.888;8.998;2022-11-14T15:16:55;3.33;;;2.00;;
19402;SDS011;9837;48.888;8.998;2022-11-14T15:19:23;4.27;;;2.07;;
19402;SDS011;9837;48.888;8.998;2022-11-14T15:24:38;2.33;;;2.10;;
19402;SDS011;9837;48.888;8.998;2022-11-14T15:27:04;3.00;;;2.37;;
19402;SDS011;9837;48.888;8.998;2022-11-14T15:29:44;2.40;;;2.20;;
19402;SDS011;9837;48.888;8.998;2022-11-14T15:32:16;3.40;;;2.43;;
19402;SDS011;9837;48.888;8.998;2022-11-14T15:35:04;2.87;;;2.50;;
19402;SDS011;9837;48.888;8.998;2022-11-14T15:37:31;3.27;;;2.27;;
19402;SDS011;9837;48.888;8.998;2022-11-14T15:40:13;2.60;;;2.13;;
19402;SDS011;9837;48.888;8.998;2022-11-14T15:42:43;4.70;;;2.40;;
19402;SDS011;9837;48.888;8.998;2022-11-14T15:45:19;3.63;;;2.80;;
19402;SDS011;9837;48.888;8.998;2022-11-14T15:47:56;4.27;;;2.77;;
19402;SDS011;9837;48.888;8.998;2022-11-14T15:50:29;3.73;;;3.00;;
19402;SDS011;9837;48.888;8.998;2022-11-14T15:53:00;4.23;;;2.83;;
19402;SDS011;9837;48.888;8.998;2022-11-14T15:55:27;6.90;;;3.30;;
19402;SDS011;9837;48.888;8.998;2022-11-14T15:57:52;3.73;;;3.10;;
19402;SDS011;9837;48.888;8.998;2022-11-14T16:00:18;6.77;;;3.00;;
19402;SDS011;9837;48.888;8.998;2022-11-14T16:05:27;4.23;;;2.87;;
19402;SDS011;9837;48.888;8.998;2022-11-14T16:07:54;4.67;;;3.10;;
19402;SDS011;9837;48.888;8.998;2022-11-14T16:10:21;6.60;;;3.20;;
19402;SDS011;9837;48.888;8.998;2022-11-14T16:12:51;5.97;;;3.97;;
19402;SDS011;9837;48.888;8.998;2022-11-14T16:15:17;14.97;;;8.30;;
19402;SDS011;9837;48.888;8.998;2022-11-14T16:17:44;4.40;;;3.20;;
19402;SDS011;9837;48.888;8.998;2022-11-14T16:20:17;6.57;;;3.20;;
19402;SDS011;9837;48.888;8.998;2022-11-14T16:22:47;6.33;;;2.80;;
19402;SDS011;9837;48.888;8.998;2022-11-14T16:25:21;4.17;;;2.53;;
19402;SDS011;9837;48.888;8.998;2022-11-14T16:27:48;3.30;;;2.63;;
19402;SDS011;9837;48.888;8.998;2022-11-14T16:30:16;4.70;;;2.70;;
19402;SDS011;9837;48.888;8.998;2022-11-14T16:32:43;4.10;;;2.70;;
19402;SDS011;9837;48.888;8.998;2022-11-14T16:35:20;24.13;;;16.17;;
19402;SDS011;9837;48.888;8.998;2022-11-14T16:37:46;6.00;;;2.97;;
19402;SDS011;9837;48.888;8.998;2022-11-14T16:40:14;4.87;;;2.90;;
19402;SDS011;9837;48.888;8.998;2022-11-14T16:42:45;5.63;;;2.37;;
19402;SDS011;9837;48.888;8.998;2022-11-14T16:45:11;5.03;;;3.07;;
19402;SDS011;9837;48.888;8.998;2022-11-14T16:47:37;5.27;;;3.97;;
19402;SDS011;9837;48.888;8.998;2022-11-14T16:50:04;4.90;;;3.00;;
19402;SDS011;9837;48.888;8.998;2022-11-14T16:52:30;4.13;;;3.17;;
19402;SDS011;9837;48.888;8.998;2022-11-14T16:54:56;5.20;;;3.53;;
19402;SDS011;9837;48.888;8.998;2022-11-14T16:57:21;6.57;;;3.60;;
19402;SDS011;9837;48.888;8.998;2022-11-14T16:59:48;6.23;;;3.93;;
19402;SDS011;9837;48.888;8.998;2022-11-14T17:02:16;3.23;;;2.77;;
19402;SDS011;9837;48.888;8.998;2022-11-14T17:04:42;5.60;;;3.40;;
19402;SDS011;9837;48.888;8.998;2022-11-14T17:07:09;6.17;;;3.73;;
19402;SDS011;9837;48.888;8.998;2022-11-14T17:09:35;4.57;;;3.40;;
19402;SDS011;9837;48.888;8.998;2022-11-14T17:12:02;3.57;;;3.17;;
19402;SDS011;9837;48.888;8.998;2022-11-14T17:14:28;3.90;;;3.13;;
19402;SDS011;9837;48.888;8.998;2022-11-14T17:16:53;5.07;;;3.10;;
19402;SDS011;9837;48.888;8.998;2022-11-14T17:19:19;5.07;;;3.30;;
19402;SDS011;9837;48.888;8.998;2022-11-14T17:21:45;5.00;;;3.37;;
19402;SDS011;9837;48.888;8.998;2022-11-14T17:24:11;4.47;;;2.90;;
19402;SDS011;9837;48.888;8.998;2022-11-14T17:26:38;5.73;;;3.00;;
19402;SDS011;9837;48.888;8.998;2022-11-14T17:29:04;6.37;;;3.87;;
19402;SDS011;9837;48.888;8.998;2022-11-14T17:31:31;3.70;;;3.30;;
19402;SDS011;9837;48.888;8.998;2022-11-14T17:33:57;7.40;;;3.57;;
19402;SDS011;9837;48.888;8.998;2022-11-14T17:36:24;5.73;;;4.03;;
19402;SDS011;9837;48.888;8.998;2022-11-14T17:38:53;8.70;;;4.57;;
19402;SDS011;9837;48.888;8.998;2022-11-14T17:41:19;5.40;;;3.93;;
19402;SDS011;9837;48.888;8.998;2022-11-14T17:43:46;7.80;;;4.33;;
19402;SDS011;9837;48.888;8.998;2022-11-14T17:46:16;6.60;;;3.57;;
19402;SDS011;9837;48.888;8.998;2022-11-14T17:48:42;7.10;;;5.23;;
19402;SDS011;9837;48.888;8.998;2022-11-14T17:51:10;6.57;;;4.13;;
19402;SDS011;9837;48.888;8.998;2022-11-14T17:53:37;7.03;;;4.53;;
19402;SDS011;9837;48.888;8.998;2022-11-14T17:56:03;7.27;;;4.63;;
19402;SDS011;9837;48.888;8.998;2022-11-14T17:58:31;10.27;;;6.37;;
19402;SDS011;9837;48.888;8.998;2022-11-14T18:00:57;10.23;;;5.50;;
19402;SDS011;9837;48.888;8.998;2022-11-14T18:03:24;6.93;;;4.23;;
19402;SDS011;9837;48.888;8.998;2022-11-14T18:05:51;7.70;;;4.93;;
19402;SDS011;9837;48.888;8.998;2022-11-14T18:08:17;6.27;;;4.73;;
19402;SDS011;9837;48.888;8.998;2022-11-14T18:10:43;6.33;;;5.03;;
19402;SDS011;9837;48.888;8.998;2022-11-14T18:13:09;12.93;;;5.37;;
19402;SDS011;9837;48.888;8.998;2022-11-14T18:15:36;8.07;;;4.80;;
19402;SDS011;9837;48.888;8.998;2022-11-14T18:18:03;10.00;;;5.17;;
19402;SDS011;9837;48.888;8.998;2022-11-14T18:20:29;7.77;;;4.50;;
19402;SDS011;9837;48.888;8.998;2022-11-14T18:22:55;7.97;;;4.53;;
19402;SDS011;9837;48.888;8.998;2022-11-14T18:25:21;7.27;;;4.90;;
19402;SDS011;9837;48.888;8.998;2022-11-14T18:27:47;12.83;;;5.70;;
19402;SDS011;9837;48.888;8.998;2022-11-14T18:30:13;11.33;;;5.97;;
19402;SDS011;9837;48.888;8.998;2022-11-14T18:32:39;7.07;;;5.40;;
19402;SDS011;9837;48.888;8.998;2022-11-14T18:35:05;6.03;;;4.33;;
19402;SDS011;9837;48.888;8.998;2022-11-14T18:37:31;11.07;;;5.30;;
19402;SDS011;9837;48.888;8.998;2022-11-14T18:39:58;7.17;;;4.80;;
19402;SDS011;9837;48.888;8.998;2022-11-14T18:42:24;9.20;;;5.80;;
19402;SDS011;9837;48.888;8.998;2022-11-14T18:44:49;9.37;;;6.13;;
19402;SDS011;9837;48.888;8.998;2022-11-14T18:47:15;9.17;;;5.07;;
19402;SDS011;9837;48.888;8.998;2022-11-14T18:49:41;10.47;;;6.43;;
19402;SDS011;9837;48.888;8.998;2022-11-14T18:52:07;10.37;;;6.07;;
19402;SDS011;9837;48.888;8.998;2022-11-14T18:54:33;12.70;;;6.30;;
19402;SDS011;9837;48.888;8.998;2022-11-14T18:56:59;10.20;;;6.40;;
19402;SDS011;9837;48.888;8.998;2022-11-14T18:59:25;9.47;;;5.80;;
19402;SDS011;9837;48.888;8.998;2022-11-14T19:01:51;7.83;;;5.13;;
19402;SDS011;9837;48.888;8.998;2022-11-14T19:04:17;8.07;;;5.87;;
19402;SDS011;9837;48.888;8.998;2022-11-14T19:06:43;10.00;;;5.63;;
19402;SDS011;9837;48.888;8.998;2022-11-14T19:09:10;8.53;;;5.13;;
19402;SDS011;9837;48.888;8.998;2022-11-14T19:11:40;8.47;;;4.90;;
19402;SDS011;9837;48.888;8.998;2022-11-14T19:14:25;10.40;;;5.17;;
19402;SDS011;9837;48.888;8.998;2022-11-14T19:16:51;8.83;;;5.10;;
19402;SDS011;9837;48.888;8.998;2022-11-14T19:19:17;4.97;;;4.13;;
19402;SDS011;9837;48.888;8.998;2022-11-14T19:21:43;12.27;;;4.47;;
19402;SDS011;9837;48.888;8.998;2022-11-14T19:24:13;10.87;;;3.73;;
19402;SDS011;9837;48.888;8.998;2022-11-14T19:26:38;7.17;;;4.53;;
19402;SDS011;9837;48.888;8.998;2022-11-14T19:29:05;8.40;;;4.67;;
19402;SDS011;9837;48.888;8.998;2022-11-14T19:31:33;6.63;;;4.13;;
19402;SDS011;9837;48.888;8.998;2022-11-14T19:33:59;6.93;;;4.20;;
19402;SDS011;9837;48.888;8.998;2022-11-14T19:36:25;6.23;;;3.73;;
19402;SDS011;9837;48.888;8.998;2022-11-14T19:38:54;5.00;;;3.73;;
19402;SDS011;9837;48.888;8.998;2022-11-14T19:41:22;5.87;;;3.80;;
19402;SDS011;9837;48.888;8.998;2022-11-14T19:43:50;6.70;;;4.13;;
19402;SDS011;9837;48.888;8.998;2022-11-14T19:46:22;5.80;;;3.83;;
19402;SDS011;9837;48.888;8.998;2022-11-14T19:48:56;13.00;;;4.37;;
19402;SDS011;9837;48.888;8.998;2022-11-14T19:51:25;6.73;;;3.77;;
19402;SDS011;9837;48.888;8.998;2022-11-14T19:53:51;7.80;;;4.23;;
19402;SDS011;9837;48.888;8.998;2022-11-14T19:56:18;8.60;;;4.10;;
19402;SDS011;9837;48.888;8.998;2022-11-14T19:58:45;7.50;;;4.07;;
19402;SDS011;9837;48.888;8.998;2022-11-14T20:01:13;7.13;;;3.73;;
19402;SDS011;9837;48.888;8.998;2022-11-14T20:03:40;5.97;;;3.57;;
19402;SDS011;9837;48.888;8.998;2022-11-14T20:06:16;6.70;;;3.57;;
19402;SDS011;9837;48.888;8.998;2022-11-14T20:08:45;4.97;;;3.50;;
19402;SDS011;9837;48.888;8.998;2022-11-14T20:11:11;7.47;;;3.80;;
19402;SDS011;9837;48.888;8.998;2022-11-14T20:13:38;7.00;;;3.83;;
19402;SDS011;9837;48.888;8.998;2022-11-14T20:16:07;5.70;;;4.00;;
19402;SDS011;9837;48.888;8.998;2022-11-14T20:18:37;7.23;;;4.07;;
19402;SDS011;9837;48.888;8.998;2022-11-14T20:21:06;6.90;;;4.00;;
19402;SDS011;9837;48.888;8.998;2022-11-14T20:23:34;5.97;;;4.17;;
19402;SDS011;9837;48.888;8.998;2022-11-14T20:26:00;6.83;;;4.40;;
19402;SDS011;9837;48.888;8.998;2022-11-14T20:28:26;11.00;;;4.30;;
19402;SDS011;9837;48.888;8.998;2022-11-14T20:30:52;7.60;;;4.07;;
19402;SDS011;9837;48.888;8.998;2022-11-14T20:33:18;6.23;;;4.30;;
19402;SDS011;9837;48.888;8.998;2022-11-14T20:35:43;6.20;;;4.53;;
19402;SDS011;9837;48.888;8.998;2022-11-14T20:38:10;8.20;;;4.33;;
19402;SDS011;9837;48.888;8.998;2022-11-14T20:40:35;7.50;;;4.37;;
19402;SDS011;9837;48.888;8.998;2022-11-14T20:43:01;6.07;;;3.90;;
19402;SDS011;9837;48.888;8.998;2022-11-14T20:45:27;4.97;;;3.40;;
19402;SDS011;9837;48.888;8.998;2022-11-14T20:47:53;4.57;;;3.50;;
19402;SDS011;9837;48.888;8.998;2022-11-14T20:50:19;5.73;;;4.30;;
19402;SDS011;9837;48.888;8.998;2022-11-14T20:52:45;6.47;;;4.07;;
19402;SDS011;9837;48.888;8.998;2022-11-14T20:55:12;6.80;;;4.40;;
19402;SDS011;9837;48.888;8.998;2022-11-14T20:57:38;7.37;;;4.50;;
19402;SDS011;9837;48.888;8.998;2022-11-14T21:00:04;6.83;;;4.50;;
19402;SDS011;9837;48.888;8.998;2022-11-14T21:02:31;7.73;;;4.90;;
19402;SDS011;9837;48.888;8.998;2022-11-14T21:04:58;7.00;;;4.50;;
19402;SDS011;9837;48.888;8.998;2022-11-14T21:07:24;10.20;;;5.20;;
19402;SDS011;9837;48.888;8.998;2022-11-14T21:09:49;6.47;;;3.43;;
19402;SDS011;9837;48.888;8.998;2022-11-14T21:12:35;7.47;;;4.90;;
19402;SDS011;9837;48.888;8.998;2022-11-14T21:15:00;6.17;;;4.23;;
19402;SDS011;9837;48.888;8.998;2022-11-14T21:17:26;5.87;;;4.07;;
19402;SDS011;9837;48.888;8.998;2022-11-14T21:19:52;5.77;;;4.07;;
19402;SDS011;9837;48.888;8.998;2022-11-14T21:22:17;9.80;;;5.17;;
19402;SDS011;9837;48.888;8.998;2022-11-14T21:24:43;5.87;;;3.60;;
19402;SDS011;9837;48.888;8.998;2022-11-14T21:27:08;6.23;;;3.83;;
19402;SDS011;9837;48.888;8.998;2022-11-14T21:29:37;6.20;;;3.40;;
19402;SDS011;9837;48.888;8.998;2022-11-14T21:32:02;5.67;;;3.80;;
19402;SDS011;9837;48.888;8.998;2022-11-14T21:34:28;7.37;;;4.23;;
19402;SDS011;9837;48.888;8.998;2022-11-14T21:36:54;9.03;;;4.47;;
19402;SDS011;9837;48.888;8.998;2022-11-14T21:39:20;5.47;;;3.50;;
19402;SDS011;9837;48.888;8.998;2022-11-14T21:41:46;5.03;;;3.73;;
19402;SDS011;9837;48.888;8.998;2022-11-14T21:44:13;6.87;;;4.23;;
19402;SDS011;9837;48.888;8.998;2022-11-14T21:46:43;4.20;;;3.53;;
19402;SDS011;9837;48.888;8.998;2022-11-14T21:49:12;8.07;;;3.80;;
19402;SDS011;9837;48.888;8.998;2022-11-14T21:51:38;4.23;;;2.97;;
19402;SDS011;9837;48.888;8.998;2022-11-14T21:54:04;6.63;;;3.57;;
19402;SDS011;9837;48.888;8.998;2022-11-14T21:56:31;6.57;;;3.20;;
19402;SDS011;9837;48.888;8.998;2022-11-14T21:58:58;7.27;;;3.23;;
